sensor_id;sensor_type;location;lat;lon;timestamp;temperature;humidity
12374;DHT22;6251;51.762;8.660;2023-10-09T01:09:45;11.50;99.90
12374;DHT22;6251;51.762;8.660;2023-10-09T02:51:20;11.90;99.90
12374;DHT22;6251;51.762;8.660;2023-10-09T04:02:29;12.50;99.90
12374;DHT22;6251;51.762;8.660;2023-10-09T04:12:31;12.50;99.90
12374;DHT22;6251;51.762;8.660;2023-10-09T04:22:34;12.50;99.90
12374;DHT22;6251;51.762;8.660;2023-10-09T04:32:39;12.40;99.90
12374;DHT22;6251;51.762;8.660;2023-10-09T04:42:40;12.40;99.90
12374;DHT22;6251;51.762;8.660;2023-10-09T04:52:58;12.40;99.90
12374;DHT22;6251;51.762;8.660;2023-10-09T05:03:19;12.50;99.90
12374;DHT22;6251;51.762;8.660;2023-10-09T05:13:29;12.60;99.90
12374;DHT22;6251;51.762;8.660;2023-10-09T05:23:39;12.60;99.90
12374;DHT22;6251;51.762;8.660;2023-10-09T05:34:05;12.80;99.90
12374;DHT22;6251;51.762;8.660;2023-10-09T05:44:07;13.10;99.90
12374;DHT22;6251;51.762;8.660;2023-10-09T05:54:26;13.40;99.90
12374;DHT22;6251;51.762;8.660;2023-10-09T06:04:45;13.40;99.90
12374;DHT22;6251;51.762;8.660;2023-10-09T06:14:54;13.50;99.90
12374;DHT22;6251;51.762;8.660;2023-10-09T06:25:13;13.60;99.90
12374;DHT22;6251;51.762;8.660;2023-10-09T06:35:18;13.60;99.90
12374;DHT22;6251;51.762;8.660;2023-10-09T06:45:30;13.70;99.90
12374;DHT22;6251;51.762;8.660;2023-10-09T06:55:44;13.90;99.90
12374;DHT22;6251;51.762;8.660;2023-10-09T07:05:51;14.10;99.90
12374;DHT22;6251;51.762;8.660;2023-10-09T07:16:05;14.30;99.90
12374;DHT22;6251;51.762;8.660;2023-10-09T07:26:24;14.40;99.90
12374;DHT22;6251;51.762;8.660;2023-10-09T07:36:37;14.60;99.90
12374;DHT22;6251;51.762;8.660;2023-10-09T07:46:38;14.70;99.90
12374;DHT22;6251;51.762;8.660;2023-10-09T07:57:13;14.80;99.90
12374;DHT22;6251;51.762;8.660;2023-10-09T08:07:17;15.10;99.90
12374;DHT22;6251;51.762;8.660;2023-10-09T08:17:25;15.20;99.90
12374;DHT22;6251;51.762;8.660;2023-10-09T08:27:29;15.30;99.90
12374;DHT22;6251;51.762;8.660;2023-10-09T08:37:32;15.50;99.90
12374;DHT22;6251;51.762;8.660;2023-10-09T08:47:33;15.60;99.90
12374;DHT22;6251;51.762;8.660;2023-10-09T08:57:35;15.70;99.90
12374;DHT22;6251;51.762;8.660;2023-10-09T09:07:40;15.80;99.90
12374;DHT22;6251;51.762;8.660;2023-10-09T09:17:42;15.90;99.90
12374;DHT22;6251;51.762;8.660;2023-10-09T09:27:44;16.00;99.90
12374;DHT22;6251;51.762;8.660;2023-10-09T09:37:53;16.20;99.90
12374;DHT22;6251;51.762;8.660;2023-10-09T09:47:55;16.40;99.90
12374;DHT22;6251;51.762;8.660;2023-10-09T09:57:58;16.60;99.90
12374;DHT22;6251;51.762;8.660;2023-10-09T10:07:59;16.90;99.90
12374;DHT22;6251;51.762;8.660;2023-10-09T10:28:20;17.10;99.90
12374;DHT22;6251;51.762;8.660;2023-10-09T10:38:39;17.30;99.90
12374;DHT22;6251;51.762;8.660;2023-10-09T10:48:46;17.30;99.90
12374;DHT22;6251;51.762;8.660;2023-10-09T10:58:53;17.50;99.90
12374;DHT22;6251;51.762;8.660;2023-10-09T11:09:07;17.40;99.90
12374;DHT22;6251;51.762;8.660;2023-10-09T11:19:22;17.20;99.90
12374;DHT22;6251;51.762;8.660;2023-10-09T11:29:28;17.10;99.90
12374;DHT22;6251;51.762;8.660;2023-10-09T11:39:44;17.10;99.90
12374;DHT22;6251;51.762;8.660;2023-10-09T11:49:53;17.10;99.90
12374;DHT22;6251;51.762;8.660;2023-10-09T12:00:03;17.20;99.90
12374;DHT22;6251;51.762;8.660;2023-10-09T12:10:23;17.40;99.90
12374;DHT22;6251;51.762;8.660;2023-10-09T12:20:26;17.40;99.90
12374;DHT22;6251;51.762;8.660;2023-10-09T12:30:32;17.50;99.90
12374;DHT22;6251;51.762;8.660;2023-10-09T12:40:40;17.50;99.90
12374;DHT22;6251;51.762;8.660;2023-10-09T12:50:41;17.50;99.90
12374;DHT22;6251;51.762;8.660;2023-10-09T13:00:42;17.50;99.90
12374;DHT22;6251;51.762;8.660;2023-10-09T13:10:50;17.30;99.90
12374;DHT22;6251;51.762;8.660;2023-10-09T13:21:00;17.20;99.90
12374;DHT22;6251;51.762;8.660;2023-10-09T13:31:04;17.30;99.90
12374;DHT22;6251;51.762;8.660;2023-10-09T13:41:05;17.40;99.90
12374;DHT22;6251;51.762;8.660;2023-10-09T13:51:08;17.40;99.90
12374;DHT22;6251;51.762;8.660;2023-10-09T14:01:14;17.40;99.90
12374;DHT22;6251;51.762;8.660;2023-10-09T14:11:27;17.30;99.90
12374;DHT22;6251;51.762;8.660;2023-10-09T14:21:28;17.30;99.90
12374;DHT22;6251;51.762;8.660;2023-10-09T14:31:30;17.50;99.90
12374;DHT22;6251;51.762;8.660;2023-10-09T14:41:31;17.40;99.90
12374;DHT22;6251;51.762;8.660;2023-10-09T14:51:33;17.40;99.90
12374;DHT22;6251;51.762;8.660;2023-10-09T15:01:34;17.30;99.90
12374;DHT22;6251;51.762;8.660;2023-10-09T15:11:35;17.30;99.90
12374;DHT22;6251;51.762;8.660;2023-10-09T15:21:39;17.40;99.90
12374;DHT22;6251;51.762;8.660;2023-10-09T15:31:46;17.50;99.90
12374;DHT22;6251;51.762;8.660;2023-10-09T15:41:47;17.50;99.90
12374;DHT22;6251;51.762;8.660;2023-10-09T15:51:49;17.40;99.90
12374;DHT22;6251;51.762;8.660;2023-10-09T16:01:49;17.40;99.90
12374;DHT22;6251;51.762;8.660;2023-10-09T16:11:51;17.40;99.90
12374;DHT22;6251;51.762;8.660;2023-10-09T16:21:54;17.40;99.90
12374;DHT22;6251;51.762;8.660;2023-10-09T16:31:54;17.40;99.90
12374;DHT22;6251;51.762;8.660;2023-10-09T16:41:55;17.20;99.90
12374;DHT22;6251;51.762;8.660;2023-10-09T16:51:58;17.10;99.90
12374;DHT22;6251;51.762;8.660;2023-10-09T17:01:59;17.00;99.90
12374;DHT22;6251;51.762;8.660;2023-10-09T17:11:59;17.00;99.90
12374;DHT22;6251;51.762;8.660;2023-10-09T17:22:00;17.00;99.90
12374;DHT22;6251;51.762;8.660;2023-10-09T17:32:11;16.90;99.90
12374;DHT22;6251;51.762;8.660;2023-10-09T17:42:12;16.90;99.90
12374;DHT22;6251;51.762;8.660;2023-10-09T17:52:13;16.90;99.90
12374;DHT22;6251;51.762;8.660;2023-10-09T18:02:13;16.80;99.90
12374;DHT22;6251;51.762;8.660;2023-10-09T18:12:14;16.70;99.90
12374;DHT22;6251;51.762;8.660;2023-10-09T18:22:15;16.60;99.90
12374;DHT22;6251;51.762;8.660;2023-10-09T18:32:15;16.40;99.90
12374;DHT22;6251;51.762;8.660;2023-10-09T18:42:16;16.20;99.90
12374;DHT22;6251;51.762;8.660;2023-10-09T18:52:16;16.20;99.90
12374;DHT22;6251;51.762;8.660;2023-10-09T19:02:17;16.20;99.90
12374;DHT22;6251;51.762;8.660;2023-10-09T19:12:18;16.20;99.90
12374;DHT22;6251;51.762;8.660;2023-10-09T19:22:19;16.20;99.90
12374;DHT22;6251;51.762;8.660;2023-10-09T19:32:20;16.10;99.90
12374;DHT22;6251;51.762;8.660;2023-10-09T19:42:21;16.10;99.90
12374;DHT22;6251;51.762;8.660;2023-10-09T19:52:21;16.00;99.90
12374;DHT22;6251;51.762;8.660;2023-10-09T20:02:22;16.10;99.90
12374;DHT22;6251;51.762;8.660;2023-10-09T20:12:24;16.10;99.90
12374;DHT22;6251;51.762;8.660;2023-10-09T20:22:26;16.10;99.90
12374;DHT22;6251;51.762;8.660;2023-10-09T20:32:27;16.20;99.90
12374;DHT22;6251;51.762;8.660;2023-10-09T20:42:28;16.20;99.90
12374;DHT22;6251;51.762;8.660;2023-10-09T20:52:29;16.20;99.90
12374;DHT22;6251;51.762;8.660;2023-10-09T23:05:20;15.80;99.90
